Time;durP1;ratioP1;P1;durP2;ratioP2;P2;SDS_P1;SDS_P2;PMS_P1;PMS_P2;Temp;Humidity;BMP_temperature;BMP_pressure;BME280_temperature;BME280_humidity;BME280_pressure;Samples;Min_cycle;Max_cycle;Signal;HPM_P1;HPM_P2
2022/05/21 00:00:53;;;;;;;;;;;19.10;53.50;;;;;;4957677;29;19942;-60
2022/05/21 00:03:18;;;;;;;;;;;19.00;53.50;;;;;;4957778;29;19915;-61
2022/05/21 00:05:45;;;;;;;;;;;19.10;53.80;;;;;;4957798;29;19911;-61
2022/05/21 00:08:10;;;;;;;;;;;19.10;53.40;;;;;;4957725;29;20398;-62
2022/05/21 00:10:37;;;;;;;;;;;19.20;53.60;;;;;;4957725;29;19911;-70
2022/05/21 00:13:02;;;;;;;;;;;19.10;54.10;;;;;;4972048;29;19934;-61
2022/05/21 00:15:30;;;;;;;;;;;19.10;54.20;;;;;;4974667;29;19926;-61
2022/05/21 00:17:55;;;;;;;;;;;19.20;54.10;;;;;;4974792;29;19910;-63
2022/05/21 00:23:24;;;;;;;;;;;19.10;53.00;;;;;;4957151;29;19917;-61
2022/05/21 00:25:51;;;;;;;;;;;19.20;49.80;;;;;;4956991;29;20013;-61
2022/05/21 00:28:17;;;;;;;;;;;19.30;48.00;;;;;;4956960;29;19940;-63
2022/05/21 00:30:44;;;;;;;;;;;19.30;47.50;;;;;;4956808;29;19961;-64
2022/05/21 00:33:09;;;;;;;;;;;19.30;46.80;;;;;;4956644;29;19961;-64
2022/05/21 00:35:35;;;;;;;;;;;19.40;46.60;;;;;;4956396;29;20363;-64
2022/05/21 00:38:00;;;;;;;;;;;19.40;47.70;;;;;;4956728;29;19958;-62
2022/05/21 00:40:26;;;;;;;;;;;19.40;47.30;;;;;;4956640;29;19969;-63
2022/05/21 00:42:52;;;;;;;;;;;19.30;47.30;;;;;;4957263;29;20286;-62
2022/05/21 00:45:18;;;;;;;;;;;19.30;49.60;;;;;;4957297;29;19911;-64
2022/05/21 00:47:43;;;;;;;;;;;19.30;50.20;;;;;;4956682;29;19910;-64
2022/05/21 00:50:10;;;;;;;;;;;19.20;50.00;;;;;;4956482;29;20338;-63
2022/05/21 00:52:36;;;;;;;;;;;19.10;50.60;;;;;;4956295;29;19911;-64
2022/05/21 00:55:04;;;;;;;;;;;19.00;50.90;;;;;;4956484;29;19965;-61
2022/05/21 00:57:35;;;;;;;;;;;19.00;51.10;;;;;;4956288;29;19914;-60
2022/05/21 01:00:04;;;;;;;;;;;18.90;51.70;;;;;;4955554;28;20009;-60
2022/05/21 01:02:38;;;;;;;;;;;18.90;51.10;;;;;;4956080;29;20005;-62
2022/05/21 01:05:06;;;;;;;;;;;18.90;48.70;;;;;;4956175;29;19911;-63
2022/05/21 01:07:31;;;;;;;;;;;18.80;48.30;;;;;;4956318;29;19958;-63
2022/05/21 01:09:58;;;;;;;;;;;18.80;47.40;;;;;;4956018;29;20367;-62
2022/05/21 01:12:28;;;;;;;;;;;18.80;47.70;;;;;;4955900;29;19942;-61
2022/05/21 01:14:56;;;;;;;;;;;18.80;48.70;;;;;;4955925;29;19969;-60
2022/05/21 01:17:21;;;;;;;;;;;18.80;50.10;;;;;;4956129;29;19926;-60
2022/05/21 01:20:02;;;;;;;;;;;18.70;49.90;;;;;;4955987;29;19911;-61
2022/05/21 01:22:28;;;;;;;;;;;18.70;50.10;;;;;;4955731;29;19934;-61
2022/05/21 01:24:54;;;;;;;;;;;18.70;50.20;;;;;;4955765;29;20306;-61
2022/05/21 01:27:20;;;;;;;;;;;18.80;50.50;;;;;;4956193;29;20334;-62
2022/05/21 01:29:48;;;;;;;;;;;18.80;50.20;;;;;;4955877;29;19910;-63
2022/05/21 01:32:18;;;;;;;;;;;18.70;50.60;;;;;;4955526;29;20351;-62
2022/05/21 01:34:43;;;;;;;;;;;18.70;50.70;;;;;;4955678;29;19926;-63
2022/05/21 01:37:09;;;;;;;;;;;18.70;50.50;;;;;;4955254;29;19926;-63
2022/05/21 01:39:35;;;;;;;;;;;18.80;50.00;;;;;;4955706;29;20000;-63
2022/05/21 01:42:01;;;;;;;;;;;18.80;46.60;;;;;;4955597;29;19918;-63
2022/05/21 01:44:38;;;;;;;;;;;18.90;45.20;;;;;;4956018;29;19911;-64
2022/05/21 01:47:08;;;;;;;;;;;19.10;45.10;;;;;;4955607;29;19910;-63
2022/05/21 01:49:34;;;;;;;;;;;19.10;46.20;;;;;;4955780;29;19911;-64
2022/05/21 01:52:00;;;;;;;;;;;19.00;47.10;;;;;;4955328;29;19921;-63
2022/05/21 01:54:26;;;;;;;;;;;19.00;46.80;;;;;;4955383;29;19917;-64
2022/05/21 01:56:52;;;;;;;;;;;18.90;45.30;;;;;;4955389;29;19948;-62
2022/05/21 01:59:18;;;;;;;;;;;18.90;45.40;;;;;;4955251;29;19965;-63
2022/05/21 02:01:43;;;;;;;;;;;18.90;45.80;;;;;;4955634;29;19942;-64
2022/05/21 02:04:09;;;;;;;;;;;18.90;45.00;;;;;;4955369;29;20320;-62
2022/05/21 02:06:34;;;;;;;;;;;18.90;43.90;;;;;;4955636;29;19911;-63
2022/05/21 02:09:00;;;;;;;;;;;18.90;44.10;;;;;;4955155;29;19911;-60
2022/05/21 02:11:25;;;;;;;;;;;18.90;44.30;;;;;;4957176;28;19945;-60
2022/05/21 02:13:51;;;;;;;;;;;19.00;43.80;;;;;;4959422;29;20092;-60
2022/05/21 02:16:16;;;;;;;;;;;18.90;46.00;;;;;;4959262;29;20275;-63
2022/05/21 02:18:42;;;;;;;;;;;18.80;45.90;;;;;;4959162;29;19986;-61
2022/05/21 02:21:07;;;;;;;;;;;18.80;45.30;;;;;;4959245;29;19911;-62
2022/05/21 02:23:34;;;;;;;;;;;18.80;45.00;;;;;;4958875;29;19918;-63
2022/05/21 02:26:00;;;;;;;;;;;18.80;45.30;;;;;;4959286;29;20314;-61
2022/05/21 02:28:26;;;;;;;;;;;18.80;46.20;;;;;;4958952;29;19917;-60
2022/05/21 02:30:51;;;;;;;;;;;18.80;46.90;;;;;;4959030;29;20334;-63
2022/05/21 02:33:17;;;;;;;;;;;18.80;47.70;;;;;;4958823;29;20374;-63
2022/05/21 02:35:43;;;;;;;;;;;18.70;47.50;;;;;;4958730;29;19926;-64
2022/05/21 02:40:53;;;;;;;;;;;18.60;46.90;;;;;;4959233;29;19918;-63
2022/05/21 02:43:19;;;;;;;;;;;18.60;46.80;;;;;;4958595;29;20284;-64
2022/05/21 02:45:44;;;;;;;;;;;18.60;47.20;;;;;;4958686;29;19917;-62
2022/05/21 02:48:10;;;;;;;;;;;18.60;47.10;;;;;;4958592;29;19910;-63
2022/05/21 02:50:36;;;;;;;;;;;18.60;48.20;;;;;;4958610;29;19957;-64
2022/05/21 02:53:02;;;;;;;;;;;18.50;49.50;;;;;;4958602;29;20275;-64
2022/05/21 02:55:28;;;;;;;;;;;18.50;50.50;;;;;;4958614;29;19918;-64
2022/05/21 02:57:54;;;;;;;;;;;18.50;51.20;;;;;;4958332;29;20355;-63
2022/05/21 03:00:21;;;;;;;;;;;18.50;51.50;;;;;;4958615;29;19917;-64
2022/05/21 03:02:46;;;;;;;;;;;18.50;52.00;;;;;;4958188;29;19911;-64
2022/05/21 03:05:12;;;;;;;;;;;18.50;52.50;;;;;;4958511;29;19917;-62
2022/05/21 03:07:42;;;;;;;;;;;18.50;52.30;;;;;;4958236;29;19911;-63
2022/05/21 03:10:23;;;;;;;;;;;18.50;53.30;;;;;;4958254;29;19911;-63
2022/05/21 03:12:56;;;;;;;;;;;18.50;53.50;;;;;;4958087;29;19910;-61
2022/05/21 03:15:26;;;;;;;;;;;18.60;53.00;;;;;;4958402;29;19922;-62
2022/05/21 03:17:52;;;;;;;;;;;18.70;53.50;;;;;;4958086;29;19918;-63
2022/05/21 03:20:19;;;;;;;;;;;18.70;54.20;;;;;;4958276;29;19910;-62
2022/05/21 03:22:45;;;;;;;;;;;18.60;54.30;;;;;;4957141;28;19910;-64
2022/05/21 03:25:10;;;;;;;;;;;18.60;54.30;;;;;;4958058;29;19958;-64
2022/05/21 03:27:36;;;;;;;;;;;18.60;54.80;;;;;;4957935;29;19911;-63
2022/05/21 03:30:07;;;;;;;;;;;18.60;55.10;;;;;;4940627;29;19910;-61
2022/05/21 03:32:33;;;;;;;;;;;18.60;55.80;;;;;;4940624;29;19914;-62
2022/05/21 03:34:59;;;;;;;;;;;18.50;55.40;;;;;;4957744;29;19914;-62
2022/05/21 03:37:25;;;;;;;;;;;18.60;55.10;;;;;;4957629;29;20001;-63
2022/05/21 03:39:50;;;;;;;;;;;18.70;54.30;;;;;;4957904;29;19911;-64
2022/05/21 03:42:16;;;;;;;;;;;18.80;53.30;;;;;;4957679;29;19917;-62
2022/05/21 03:44:43;;;;;;;;;;;18.90;52.90;;;;;;4957533;29;19911;-62
2022/05/21 03:47:10;;;;;;;;;;;19.00;53.00;;;;;;4957672;29;19914;-61
2022/05/21 03:49:36;;;;;;;;;;;19.00;53.70;;;;;;4957704;29;19910;-61
2022/05/21 03:52:01;;;;;;;;;;;19.00;54.10;;;;;;4957653;29;19933;-61
2022/05/21 03:54:27;;;;;;;;;;;19.00;54.40;;;;;;4957614;29;19911;-61
2022/05/21 03:56:54;;;;;;;;;;;19.00;54.50;;;;;;4957539;29;19918;-63
2022/05/21 03:59:20;;;;;;;;;;;19.00;54.80;;;;;;4957483;29;19911;-62
2022/05/21 04:01:46;;;;;;;;;;;19.00;55.20;;;;;;4939893;29;20355;-61
2022/05/21 04:04:11;;;;;;;;;;;19.10;55.60;;;;;;4957205;29;20001;-61
2022/05/21 04:06:37;;;;;;;;;;;19.20;55.20;;;;;;4957378;29;19910;-61
2022/05/21 04:09:03;;;;;;;;;;;19.20;55.20;;;;;;4957448;29;19965;-62
2022/05/21 04:11:28;;;;;;;;;;;19.20;56.70;;;;;;4956903;29;20371;-62
2022/05/21 04:13:54;;;;;;;;;;;19.20;57.40;;;;;;4957036;29;19926;-63
2022/05/21 04:16:20;;;;;;;;;;;19.10;57.90;;;;;;4957050;29;20338;-61
2022/05/21 04:18:46;;;;;;;;;;;19.10;58.10;;;;;;4957224;29;19917;-61
2022/05/21 04:21:11;;;;;;;;;;;19.10;59.00;;;;;;4956932;29;20001;-63
2022/05/21 04:23:37;;;;;;;;;;;19.10;59.40;;;;;;4957057;29;19911;-62
2022/05/21 04:26:03;;;;;;;;;;;19.20;59.90;;;;;;4956875;29;19910;-63
2022/05/21 04:28:29;;;;;;;;;;;19.20;60.50;;;;;;4956774;29;19910;-64
2022/05/21 04:30:55;;;;;;;;;;;19.20;60.80;;;;;;4956868;29;20346;-65
2022/05/21 04:33:20;;;;;;;;;;;19.20;60.40;;;;;;4939751;29;19917;-64
2022/05/21 04:38:32;;;;;;;;;;;19.20;60.60;;;;;;4957205;29;19922;-63
2022/05/21 04:40:57;;;;;;;;;;;19.30;61.20;;;;;;4956517;29;19917;-62
2022/05/21 04:43:23;;;;;;;;;;;19.30;61.60;;;;;;4956644;29;19914;-65
2022/05/21 04:45:48;;;;;;;;;;;19.30;61.10;;;;;;4956717;29;19914;-64
2022/05/21 04:48:14;;;;;;;;;;;19.40;60.90;;;;;;4956215;29;20020;-64
2022/05/21 04:50:40;;;;;;;;;;;19.40;61.50;;;;;;4956476;29;19989;-66
2022/05/21 04:53:06;;;;;;;;;;;19.40;61.50;;;;;;4956387;29;19918;-66
2022/05/21 04:55:31;;;;;;;;;;;19.40;61.90;;;;;;4956239;29;19958;-63
2022/05/21 04:57:57;;;;;;;;;;;19.40;62.00;;;;;;4956690;29;19938;-64
2022/05/21 05:00:22;;;;;;;;;;;19.40;63.00;;;;;;4956345;29;20286;-64
2022/05/21 05:02:48;;;;;;;;;;;19.40;62.80;;;;;;4956219;29;19965;-64
2022/05/21 05:05:14;;;;;;;;;;;19.40;62.40;;;;;;4956425;29;19956;-63
2022/05/21 05:07:40;;;;;;;;;;;19.50;62.50;;;;;;4956321;29;19964;-65
2022/05/21 05:10:06;;;;;;;;;;;19.60;62.40;;;;;;4955815;29;19911;-64
2022/05/21 05:12:32;;;;;;;;;;;19.60;62.70;;;;;;4955972;29;20290;-64
2022/05/21 05:14:58;;;;;;;;;;;19.70;62.30;;;;;;4956258;29;20295;-64
2022/05/21 05:17:24;;;;;;;;;;;19.60;63.00;;;;;;4955911;29;19925;-64
2022/05/21 05:19:50;;;;;;;;;;;19.70;62.60;;;;;;4956011;29;19921;-63
2022/05/21 05:22:16;;;;;;;;;;;19.70;62.40;;;;;;4955845;29;19966;-64
2022/05/21 05:24:41;;;;;;;;;;;19.70;63.30;;;;;;4956129;29;19910;-64
2022/05/21 05:27:07;;;;;;;;;;;19.80;63.50;;;;;;4956198;29;19910;-61
2022/05/21 05:29:33;;;;;;;;;;;19.80;63.60;;;;;;4956201;29;19917;-60
2022/05/21 05:31:59;;;;;;;;;;;19.70;63.90;;;;;;4938917;29;19966;-61
2022/05/21 05:34:25;;;;;;;;;;;19.80;63.90;;;;;;4938658;29;19915;-61
2022/05/21 05:36:51;;;;;;;;;;;19.80;64.20;;;;;;4955584;29;20383;-61
2022/05/21 05:39:17;;;;;;;;;;;19.90;63.80;;;;;;4955487;29;19917;-61
2022/05/21 05:41:43;;;;;;;;;;;20.00;64.00;;;;;;4955486;29;19910;-62
2022/05/21 05:44:08;;;;;;;;;;;20.30;63.40;;;;;;4956147;29;19918;-62
2022/05/21 05:46:34;;;;;;;;;;;20.70;62.30;;;;;;4955415;29;19910;-60
2022/05/21 05:48:59;;;;;;;;;;;21.10;60.30;;;;;;4955689;29;20259;-60
2022/05/21 05:51:26;;;;;;;;;;;21.50;58.90;;;;;;4955555;29;20009;-62
2022/05/21 05:53:52;;;;;;;;;;;21.90;57.80;;;;;;4955563;29;19918;-65
2022/05/21 05:56:18;;;;;;;;;;;22.30;56.80;;;;;;4955518;29;19918;-65
2022/05/21 06:01:29;;;;;;;;;;;23.20;56.50;;;;;;4955665;29;19916;-62
2022/05/21 06:03:54;;;;;;;;;;;23.60;55.10;;;;;;4955259;29;20004;-62
2022/05/21 06:06:20;;;;;;;;;;;23.70;52.20;;;;;;4955037;29;19965;-62
2022/05/21 06:08:46;;;;;;;;;;;23.60;51.40;;;;;;4954651;29;19921;-64
2022/05/21 06:11:12;;;;;;;;;;;23.50;52.10;;;;;;4954964;29;19912;-61
2022/05/21 06:13:38;;;;;;;;;;;23.60;52.90;;;;;;4955269;29;19911;-64
2022/05/21 06:16:04;;;;;;;;;;;23.80;51.50;;;;;;4955384;29;19919;-61
2022/05/21 06:18:29;;;;;;;;;;;23.90;51.70;;;;;;4955244;29;19914;-62
2022/05/21 06:20:58;;;;;;;;;;;24.00;53.30;;;;;;4954923;29;19910;-61
2022/05/21 06:23:24;;;;;;;;;;;23.40;51.50;;;;;;4954872;29;19957;-63
2022/05/21 06:25:49;;;;;;;;;;;23.10;51.50;;;;;;4954888;29;20005;-64
2022/05/21 06:28:15;;;;;;;;;;;23.20;53.30;;;;;;4955007;29;20290;-63
2022/05/21 06:30:41;;;;;;;;;;;23.30;53.40;;;;;;4955098;29;19911;-59
2022/05/21 06:33:10;;;;;;;;;;;23.40;54.50;;;;;;4937572;29;19910;-60
2022/05/21 06:35:36;;;;;;;;;;;23.40;53.90;;;;;;4954455;29;19921;-66
2022/05/21 06:38:03;;;;;;;;;;;23.50;53.50;;;;;;4955171;29;20358;-62
2022/05/21 06:40:28;;;;;;;;;;;23.50;53.80;;;;;;4955131;29;19911;-63
2022/05/21 06:42:54;;;;;;;;;;;23.60;54.90;;;;;;4955061;29;20001;-68
2022/05/21 06:45:19;;;;;;;;;;;23.60;56.50;;;;;;4955070;29;19917;-67
2022/05/21 06:47:45;;;;;;;;;;;23.60;54.80;;;;;;4955060;29;19910;-65
2022/05/21 06:50:11;;;;;;;;;;;23.60;54.10;;;;;;4955161;29;19910;-61
2022/05/21 06:52:39;;;;;;;;;;;23.60;52.60;;;;;;4954653;29;19932;-62
2022/05/21 06:55:05;;;;;;;;;;;23.50;52.10;;;;;;4954952;29;19981;-66
2022/05/21 06:57:31;;;;;;;;;;;23.60;51.80;;;;;;4955075;28;19919;-63
2022/05/21 06:59:56;;;;;;;;;;;23.50;51.80;;;;;;4952380;29;20017;-62
2022/05/21 07:02:23;;;;;;;;;;;23.50;52.10;;;;;;4947109;29;19957;-67
2022/05/21 07:07:33;;;;;;;;;;;23.60;51.90;;;;;;4946967;29;20394;-63
2022/05/21 07:10:00;;;;;;;;;;;23.60;51.60;;;;;;4947308;29;19918;-61
2022/05/21 07:12:25;;;;;;;;;;;23.70;51.50;;;;;;4948592;29;19910;-59
2022/05/21 07:14:51;;;;;;;;;;;23.80;51.70;;;;;;4956392;29;19911;-60
2022/05/21 07:17:17;;;;;;;;;;;24.10;51.40;;;;;;4957462;29;19918;-66
2022/05/21 07:19:42;;;;;;;;;;;24.30;50.70;;;;;;4957663;29;19911;-67
2022/05/21 07:22:09;;;;;;;;;;;24.40;49.60;;;;;;4957419;29;20393;-66
2022/05/21 07:24:44;;;;;;;;;;;24.70;49.70;;;;;;4957770;29;20311;-65
2022/05/21 07:27:12;;;;;;;;;;;24.90;48.60;;;;;;4957633;29;19911;-67
2022/05/21 07:29:40;;;;;;;;;;;25.20;47.70;;;;;;4957852;29;19917;-65
2022/05/21 07:32:14;;;;;;;;;;;25.40;43.70;;;;;;4957197;29;20282;-65
2022/05/21 07:34:39;;;;;;;;;;;25.50;41.00;;;;;;4957407;29;20390;-63
2022/05/21 07:37:05;;;;;;;;;;;25.50;38.40;;;;;;4957179;29;19963;-63
2022/05/21 07:39:30;;;;;;;;;;;25.70;34.50;;;;;;4957698;29;20342;-64
2022/05/21 07:41:56;;;;;;;;;;;25.80;33.80;;;;;;4957441;29;20481;-64
2022/05/21 07:44:22;;;;;;;;;;;26.00;37.20;;;;;;4957170;29;20285;-64
2022/05/21 07:46:47;;;;;;;;;;;26.00;32.70;;;;;;4956838;29;19914;-66
2022/05/21 07:49:13;;;;;;;;;;;26.00;32.50;;;;;;4957193;29;19958;-65
2022/05/21 07:51:38;;;;;;;;;;;26.20;36.10;;;;;;4957179;29;19921;-65
2022/05/21 07:54:04;;;;;;;;;;;26.30;35.40;;;;;;4957150;29;20017;-66
2022/05/21 07:56:30;;;;;;;;;;;26.40;36.00;;;;;;4957050;29;20378;-66
2022/05/21 07:58:57;;;;;;;;;;;26.40;35.30;;;;;;4957393;29;19918;-63
2022/05/21 08:01:22;;;;;;;;;;;26.40;36.70;;;;;;4957175;29;19966;-66
2022/05/21 08:03:48;;;;;;;;;;;26.40;37.20;;;;;;4957105;29;19911;-66
2022/05/21 08:06:14;;;;;;;;;;;26.40;36.90;;;;;;4956930;29;19911;-65
2022/05/21 08:08:40;;;;;;;;;;;26.30;38.40;;;;;;4956753;28;19921;-64
2022/05/21 08:11:05;;;;;;;;;;;26.30;38.00;;;;;;4956808;29;19989;-60
2022/05/21 08:13:31;;;;;;;;;;;26.30;38.40;;;;;;4956676;29;19910;-62
2022/05/21 08:15:56;;;;;;;;;;;26.30;38.80;;;;;;4955492;29;19977;-60
2022/05/21 08:18:22;;;;;;;;;;;26.40;39.50;;;;;;4956848;29;19966;-61
2022/05/21 08:20:50;;;;;;;;;;;26.50;39.10;;;;;;4957161;29;19918;-64
2022/05/21 08:28:44;;;;;;;;;;;26.70;38.50;;;;;;4956625;29;20001;-64
2022/05/21 08:31:10;;;;;;;;;;;26.70;37.90;;;;;;4956315;29;19915;-60
2022/05/21 08:33:36;;;;;;;;;;;26.60;37.30;;;;;;4956439;29;19911;-62
2022/05/21 08:36:01;;;;;;;;;;;26.50;37.10;;;;;;4955679;29;19923;-62
2022/05/21 08:38:27;;;;;;;;;;;26.50;34.10;;;;;;4955974;29;20426;-61
2022/05/21 08:40:58;;;;;;;;;;;26.40;35.00;;;;;;4956021;29;19921;-63
2022/05/21 08:43:24;;;;;;;;;;;26.40;33.80;;;;;;4955605;29;19958;-63
2022/05/21 08:46:07;;;;;;;;;;;26.40;33.90;;;;;;4955923;29;19914;-63
2022/05/21 08:48:34;;;;;;;;;;;26.30;33.10;;;;;;4955859;29;19916;-65
2022/05/21 08:51:01;;;;;;;;;;;26.20;33.40;;;;;;4955544;29;19914;-62
2022/05/21 08:53:28;;;;;;;;;;;26.20;35.10;;;;;;4955477;29;20267;-61
2022/05/21 08:55:55;;;;;;;;;;;26.20;35.30;;;;;;4956111;29;20272;-63
2022/05/21 08:58:26;;;;;;;;;;;26.20;35.30;;;;;;4956026;29;19911;-61
2022/05/21 09:00:53;;;;;;;;;;;26.30;33.00;;;;;;4938288;29;19921;-62
2022/05/21 09:03:20;;;;;;;;;;;26.40;33.70;;;;;;4955372;29;19957;-60
2022/05/21 09:05:48;;;;;;;;;;;26.40;31.90;;;;;;4955478;29;19911;-64
2022/05/21 09:08:35;;;;;;;;;;;26.30;31.00;;;;;;4955533;29;20390;-67
2022/05/21 09:11:11;;;;;;;;;;;26.30;32.30;;;;;;4955678;29;19911;-63
2022/05/21 09:13:46;;;;;;;;;;;26.20;32.30;;;;;;4955176;29;19965;-65
2022/05/21 09:18:58;;;;;;;;;;;26.20;31.50;;;;;;4938643;29;20049;-64
2022/05/21 09:21:25;;;;;;;;;;;26.20;32.00;;;;;;4944536;29;20415;-63
2022/05/21 09:23:52;;;;;;;;;;;26.10;31.00;;;;;;4943270;29;20009;-60
2022/05/21 09:26:19;;;;;;;;;;;26.00;31.80;;;;;;4943990;29;19925;-64
2022/05/21 09:28:45;;;;;;;;;;;26.10;31.30;;;;;;4945825;29;19910;-61
2022/05/21 09:31:11;;;;;;;;;;;26.10;32.80;;;;;;4945566;29;19923;-59
2022/05/21 09:33:41;;;;;;;;;;;26.10;32.80;;;;;;4944253;29;19911;-61
2022/05/21 09:36:07;;;;;;;;;;;26.10;31.40;;;;;;4942243;29;19977;-59
2022/05/21 09:38:34;;;;;;;;;;;26.00;31.80;;;;;;4939466;29;20510;-63
2022/05/21 09:41:09;;;;;;;;;;;25.90;32.10;;;;;;4935446;29;19969;-58
2022/05/21 09:46:21;;;;;;;;;;;25.80;34.00;;;;;;4936174;29;19922;-64
2022/05/21 09:48:48;;;;;;;;;;;25.70;33.10;;;;;;4935899;29;19915;-63
2022/05/21 09:51:20;;;;;;;;;;;25.60;34.70;;;;;;4935967;29;19911;-66
2022/05/21 09:53:46;;;;;;;;;;;25.60;33.80;;;;;;4935798;29;19938;-67
2022/05/21 09:56:22;;;;;;;;;;;25.50;35.20;;;;;;4936100;29;19922;-68
2022/05/21 09:58:49;;;;;;;;;;;25.50;34.60;;;;;;4935882;29;19911;-65
2022/05/21 10:01:36;;;;;;;;;;;25.40;34.70;;;;;;4935791;29;19911;-61
2022/05/21 10:04:11;;;;;;;;;;;25.30;35.30;;;;;;4935463;29;19918;-65
2022/05/21 10:06:40;;;;;;;;;;;25.30;36.90;;;;;;4935882;29;20259;-62
2022/05/21 10:12:14;;;;;;;;;;;25.30;37.00;;;;;;4935097;29;19918;-65
2022/05/21 10:14:42;;;;;;;;;;;25.30;37.70;;;;;;4934874;29;19921;-63
2022/05/21 10:17:14;;;;;;;;;;;25.20;38.60;;;;;;4935931;29;20272;-66
2022/05/21 10:19:54;;;;;;;;;;;25.30;39.00;;;;;;4935860;29;20009;-61
2022/05/21 10:22:26;;;;;;;;;;;25.20;40.50;;;;;;4935631;29;19978;-63
2022/05/21 10:25:13;;;;;;;;;;;25.30;41.20;;;;;;4935846;29;19998;-59
2022/05/21 10:27:47;;;;;;;;;;;25.30;40.80;;;;;;4936120;29;20071;-60
2022/05/21 10:30:35;;;;;;;;;;;25.20;41.30;;;;;;4935750;29;19911;-63
2022/05/21 10:33:09;;;;;;;;;;;25.10;42.20;;;;;;4930835;29;20022;-60
2022/05/21 10:35:38;;;;;;;;;;;25.10;44.90;;;;;;4938628;29;19966;-57
2022/05/21 10:38:20;;;;;;;;;;;25.10;44.50;;;;;;4938825;29;19922;-60
2022/05/21 10:41:00;;;;;;;;;;;25.20;47.50;;;;;;4939448;29;20278;-64
2022/05/21 10:43:31;;;;;;;;;;;25.30;49.10;;;;;;4939652;29;19918;-63
2022/05/21 10:46:03;;;;;;;;;;;25.30;48.30;;;;;;4944752;29;20053;-68
2022/05/21 10:48:34;;;;;;;;;;;25.40;49.70;;;;;;4949255;29;19918;-56
2022/05/21 10:51:04;;;;;;;;;;;25.40;45.50;;;;;;4947219;29;19910;-57
2022/05/21 10:53:50;;;;;;;;;;;25.30;46.00;;;;;;4940209;29;19919;-57
2022/05/21 10:56:31;;;;;;;;;;;25.20;46.60;;;;;;4937157;29;19915;-59
2022/05/21 10:59:15;;;;;;;;;;;25.20;47.30;;;;;;4938767;29;19911;-59
2022/05/21 11:01:54;;;;;;;;;;;25.10;46.70;;;;;;4938784;29;19911;-56
2022/05/21 11:04:19;;;;;;;;;;;25.20;47.10;;;;;;4938826;29;20371;-60
2022/05/21 11:07:03;;;;;;;;;;;25.30;47.30;;;;;;4938803;29;19911;-64
2022/05/21 11:09:31;;;;;;;;;;;25.30;47.00;;;;;;4938573;29;19911;-63
2022/05/21 11:12:00;;;;;;;;;;;25.30;47.60;;;;;;4938673;29;19954;-64
2022/05/21 11:14:44;;;;;;;;;;;25.30;47.60;;;;;;4938562;29;20005;-65
2022/05/21 11:17:21;;;;;;;;;;;25.30;47.70;;;;;;4938516;29;19973;-65
2022/05/21 11:19:59;;;;;;;;;;;25.30;47.60;;;;;;4938811;29;19911;-65
2022/05/21 11:22:29;;;;;;;;;;;25.20;48.10;;;;;;4939703;29;19918;-64
2022/05/21 11:25:02;;;;;;;;;;;25.20;48.10;;;;;;4941031;29;19911;-62
2022/05/21 11:27:34;;;;;;;;;;;25.20;48.00;;;;;;4939750;29;19911;-65
2022/05/21 11:30:00;;;;;;;;;;;25.20;48.10;;;;;;4938425;29;19915;-61
2022/05/21 11:38:02;;;;;;;;;;;25.30;48.40;;;;;;4937227;29;19990;-63
2022/05/21 11:40:47;;;;;;;;;;;25.30;48.50;;;;;;4937645;29;19927;-67
2022/05/21 11:43:12;;;;;;;;;;;25.30;49.30;;;;;;4937417;29;19911;-67
2022/05/21 11:45:38;;;;;;;;;;;25.30;49.30;;;;;;4940619;29;19911;-65
2022/05/21 11:48:16;;;;;;;;;;;25.30;50.20;;;;;;4945643;29;19918;-61
2022/05/21 11:50:42;;;;;;;;;;;25.30;50.20;;;;;;4943023;29;19911;-61
2022/05/21 11:53:09;;;;;;;;;;;25.30;50.60;;;;;;4946047;29;19922;-65
2022/05/21 11:55:53;;;;;;;;;;;25.30;50.20;;;;;;4940112;29;19971;-59
2022/05/21 11:58:24;;;;;;;;;;;25.30;51.50;;;;;;4940210;29;19915;-63
2022/05/21 12:00:49;;;;;;;;;;;25.20;50.70;;;;;;4937158;29;20367;-59
2022/05/21 12:03:16;;;;;;;;;;;25.20;50.70;;;;;;4937065;29;19930;-60
2022/05/21 12:05:45;;;;;;;;;;;25.20;50.90;;;;;;4937338;29;19911;-59
2022/05/21 12:08:11;;;;;;;;;;;25.30;51.10;;;;;;4937583;29;19911;-61
2022/05/21 12:10:58;;;;;;;;;;;25.30;51.50;;;;;;4937385;29;19915;-60
2022/05/21 12:13:32;;;;;;;;;;;25.20;52.00;;;;;;4937242;29;19911;-59
2022/05/21 12:15:59;;;;;;;;;;;25.20;52.50;;;;;;4937125;29;19926;-59
2022/05/21 12:18:46;;;;;;;;;;;25.20;52.00;;;;;;4937191;29;19966;-59
2022/05/21 12:21:30;;;;;;;;;;;25.30;52.10;;;;;;4936931;29;20001;-60
2022/05/21 12:23:55;;;;;;;;;;;25.20;52.20;;;;;;4937112;29;19922;-58
2022/05/21 12:26:30;;;;;;;;;;;25.20;52.80;;;;;;4937455;29;19910;-59
2022/05/21 12:28:55;;;;;;;;;;;25.20;52.30;;;;;;4936796;29;19918;-62
2022/05/21 12:31:44;;;;;;;;;;;25.20;52.60;;;;;;4937139;29;19915;-62
2022/05/21 12:34:12;;;;;;;;;;;25.30;52.70;;;;;;4936912;29;19918;-59
2022/05/21 12:36:38;;;;;;;;;;;25.30;52.90;;;;;;4936571;29;19923;-62
2022/05/21 12:39:05;;;;;;;;;;;25.30;52.80;;;;;;4936843;29;19918;-62
2022/05/21 12:41:36;;;;;;;;;;;25.30;52.50;;;;;;4937006;29;20279;-60
2022/05/21 12:44:01;;;;;;;;;;;25.40;53.40;;;;;;4936728;29;19910;-58
2022/05/21 12:46:32;;;;;;;;;;;25.40;52.50;;;;;;4951258;29;20006;-59
2022/05/21 12:48:59;;;;;;;;;;;25.40;52.70;;;;;;4939891;29;20005;-59
2022/05/21 12:51:28;;;;;;;;;;;25.40;52.30;;;;;;4944382;29;19921;-58
2022/05/21 12:53:55;;;;;;;;;;;25.40;52.10;;;;;;4945610;29;19911;-59
2022/05/21 12:56:24;;;;;;;;;;;25.40;52.10;;;;;;4942794;28;19925;-59
2022/05/21 12:59:07;;;;;;;;;;;25.40;52.20;;;;;;4934047;29;19925;-60
2022/05/21 13:01:34;;;;;;;;;;;25.40;52.00;;;;;;4933824;29;19914;-60
2022/05/21 13:04:00;;;;;;;;;;;25.40;51.70;;;;;;4941674;29;19926;-62
2022/05/21 13:06:31;;;;;;;;;;;25.40;51.60;;;;;;4945842;29;19917;-60
2022/05/21 13:08:59;;;;;;;;;;;25.50;51.50;;;;;;4944892;29;19958;-61
2022/05/21 13:11:28;;;;;;;;;;;25.50;51.00;;;;;;4946165;29;19953;-57
2022/05/21 13:13:57;;;;;;;;;;;25.40;50.80;;;;;;4931959;29;20308;-61
2022/05/21 13:16:23;;;;;;;;;;;25.40;51.30;;;;;;4955665;29;19984;-59
2022/05/21 13:18:55;;;;;;;;;;;25.40;51.30;;;;;;4955671;29;20355;-64
2022/05/21 13:21:26;;;;;;;;;;;25.40;51.10;;;;;;4955906;29;19940;-64
2022/05/21 13:24:07;;;;;;;;;;;25.40;50.90;;;;;;4947227;29;19910;-63
2022/05/21 13:26:34;;;;;;;;;;;25.40;50.30;;;;;;4940404;29;19921;-64
2022/05/21 13:29:12;;;;;;;;;;;25.50;49.90;;;;;;4941766;29;19997;-57
2022/05/21 13:31:37;;;;;;;;;;;25.50;49.30;;;;;;4949112;29;20319;-59
2022/05/21 13:34:03;;;;;;;;;;;25.50;49.60;;;;;;4947042;29;19953;-58
2022/05/21 13:36:31;;;;;;;;;;;25.50;49.50;;;;;;4944812;29;20389;-60
2022/05/21 13:38:57;;;;;;;;;;;25.50;48.50;;;;;;4946084;29;19977;-62
2022/05/21 13:41:27;;;;;;;;;;;25.60;47.70;;;;;;4946499;29;19911;-59
2022/05/21 13:43:54;;;;;;;;;;;25.60;47.40;;;;;;4933761;29;20005;-57
2022/05/21 13:46:24;;;;;;;;;;;25.60;47.40;;;;;;4955578;29;19915;-57
2022/05/21 13:48:53;;;;;;;;;;;25.60;47.10;;;;;;4955313;29;20329;-60
2022/05/21 13:51:21;;;;;;;;;;;25.60;45.60;;;;;;4955409;29;19973;-61
2022/05/21 13:53:47;;;;;;;;;;;25.60;44.90;;;;;;4955631;29;19966;-60
2022/05/21 13:56:33;;;;;;;;;;;25.60;46.70;;;;;;4955321;29;19922;-61
2022/05/21 13:59:04;;;;;;;;;;;25.60;45.80;;;;;;4955515;29;19917;-61
2022/05/21 14:01:31;;;;;;;;;;;25.60;45.50;;;;;;4955507;29;19958;-60
2022/05/21 14:04:23;;;;;;;;;;;25.60;47.10;;;;;;4955164;29;19981;-61
2022/05/21 14:06:50;;;;;;;;;;;25.70;49.00;;;;;;4951910;28;19910;-61
2022/05/21 14:09:20;;;;;;;;;;;25.70;49.70;;;;;;4959805;29;19997;-62
2022/05/21 14:11:50;;;;;;;;;;;25.70;50.00;;;;;;4959373;29;19910;-63
2022/05/21 14:14:15;;;;;;;;;;;25.70;49.90;;;;;;4959187;29;20252;-59
2022/05/21 14:16:45;;;;;;;;;;;25.70;49.40;;;;;;4958882;29;19952;-65
2022/05/21 14:19:17;;;;;;;;;;;25.70;49.40;;;;;;4959474;29;19958;-61
2022/05/21 14:21:58;;;;;;;;;;;25.70;48.50;;;;;;4958999;29;20021;-61
2022/05/21 14:24:26;;;;;;;;;;;25.80;48.30;;;;;;4958714;29;19956;-59
2022/05/21 14:26:57;;;;;;;;;;;25.80;48.80;;;;;;4958909;29;19910;-60
2022/05/21 14:29:38;;;;;;;;;;;25.70;48.30;;;;;;4958596;29;20359;-59
2022/05/21 14:32:32;;;;;;;;;;;25.70;48.20;;;;;;4958734;29;20350;-65
2022/05/21 14:35:10;;;;;;;;;;;25.70;47.00;;;;;;4941823;29;19910;-70
2022/05/21 14:37:36;;;;;;;;;;;25.60;48.30;;;;;;4958612;29;20021;-69
2022/05/21 14:40:03;;;;;;;;;;;25.70;48.00;;;;;;4958526;29;20001;-70
2022/05/21 14:42:29;;;;;;;;;;;25.70;47.70;;;;;;4958543;29;19911;-70
2022/05/21 14:44:55;;;;;;;;;;;25.70;47.90;;;;;;4958839;29;19911;-70
2022/05/21 14:52:53;;;;;;;;;;;25.70;47.50;;;;;;4958844;29;20311;-66
2022/05/21 14:55:19;;;;;;;;;;;25.80;46.90;;;;;;4958487;29;19911;-67
2022/05/21 14:57:45;;;;;;;;;;;25.80;46.10;;;;;;4958313;29;20080;-67
2022/05/21 15:00:11;;;;;;;;;;;25.80;46.70;;;;;;4958255;29;20461;-67
2022/05/21 15:02:37;;;;;;;;;;;25.70;46.80;;;;;;4958246;29;19982;-66